CTN3251 LDZA-LDSP
Flight info
| Callsign | CTN3251 |
|---|---|
| Flight time | 0h 29m |
| Altitude | 20000 |
| Route | NIVE1W NIVES Y137 PALEZ L862 OKLAX OKLA2Z |
| Aircraft | A20N/M-SADE2E3FGHIJ3J4J5M1RWXYZ/LB1 |
Departure
| Time | 2026-04-29 19:08 |
|---|---|
| Airport | Zagreb Franjo Tuđman International Airport (LDZA) |
Arrival
| Time | 2026-04-29 19:37 |
|---|---|
| Airport | Split Saint Jerome Airport (LDSP) |
| Time | Latitude | Longitude | Altitude | Speed | Heading |
|---|---|---|---|---|---|
| 2026-04-29 18:31 | 45.74159 | 16.07783 | 354 ft | 0 kts | 138° |
| 2026-04-29 18:57 | 45.74162 | 16.07780 | 354 ft | 1 kts | 138° |
| 2026-04-29 18:57 | 45.74168 | 16.07771 | 354 ft | 3 kts | 138° |
| 2026-04-29 18:57 | 45.74186 | 16.07752 | 362 ft | 3 kts | 152° |
| 2026-04-29 18:58 | 45.74206 | 16.07740 | 359 ft | 3 kts | 170° |
| 2026-04-29 18:58 | 45.74228 | 16.07739 | 362 ft | 3 kts | 194° |
| 2026-04-29 18:58 | 45.74248 | 16.07752 | 364 ft | 3 kts | 222° |
| 2026-04-29 18:58 | 45.74250 | 16.07755 | 363 ft | 0 kts | 224° |
| 2026-04-29 19:02 | 45.74241 | 16.07743 | 364 ft | 4 kts | 223° |
| 2026-04-29 19:02 | 45.74214 | 16.07704 | 364 ft | 14 kts | 226° |
| 2026-04-29 19:02 | 45.74088 | 16.07511 | 358 ft | 23 kts | 227° |
| 2026-04-29 19:02 | 45.74082 | 16.07383 | 357 ft | 12 kts | 324° |
| 2026-04-29 19:03 | 45.74138 | 16.07301 | 361 ft | 12 kts | 315° |
| 2026-04-29 19:03 | 45.74201 | 16.07219 | 366 ft | 12 kts | 317° |
| 2026-04-29 19:03 | 45.74197 | 16.07137 | 363 ft | 8 kts | 213° |
| 2026-04-29 19:03 | 45.74151 | 16.07058 | 362 ft | 14 kts | 231° |
| 2026-04-29 19:04 | 45.74082 | 16.06950 | 362 ft | 16 kts | 226° |
| 2026-04-29 19:04 | 45.73987 | 16.06808 | 365 ft | 23 kts | 226° |
| 2026-04-29 19:04 | 45.73869 | 16.06630 | 357 ft | 25 kts | 226° |
| 2026-04-29 19:04 | 45.73763 | 16.06472 | 362 ft | 16 kts | 226° |
| 2026-04-29 19:05 | 45.73758 | 16.06375 | 368 ft | 7 kts | 312° |
| 2026-04-29 19:05 | 45.73786 | 16.06334 | 361 ft | 4 kts | 315° |
| 2026-04-29 19:05 | 45.73811 | 16.06300 | 362 ft | 9 kts | 317° |
| 2026-04-29 19:05 | 45.73833 | 16.06174 | 368 ft | 20 kts | 223° |
| 2026-04-29 19:06 | 45.73710 | 16.05991 | 364 ft | 32 kts | 227° |
| 2026-04-29 19:06 | 45.73552 | 16.05744 | 365 ft | 33 kts | 232° |
| 2026-04-29 19:06 | 45.73439 | 16.05546 | 364 ft | 8 kts | 194° |
| 2026-04-29 19:07 | 45.73429 | 16.05556 | 362 ft | 1 kts | 109° |
| 2026-04-29 19:07 | 45.73431 | 16.05559 | 362 ft | 1 kts | 84° |
| 2026-04-29 19:07 | 45.73616 | 16.05850 | 364 ft | 69 kts | 47° |
| 2026-04-29 19:07 | 45.74105 | 16.06591 | 361 ft | 132 kts | 46° |
| 2026-04-29 19:08 | 45.74840 | 16.07702 | 460 ft | 168 kts | 47° |
| 2026-04-29 19:08 | 45.75549 | 16.09003 | 1059 ft | 170 kts | 65° |
| 2026-04-29 19:08 | 45.75869 | 16.10690 | 1646 ft | 182 kts | 84° |
| 2026-04-29 19:08 | 45.75847 | 16.12582 | 2150 ft | 200 kts | 95° |
| 2026-04-29 19:09 | 45.75623 | 16.14647 | 2581 ft | 222 kts | 99° |
| 2026-04-29 19:09 | 45.75296 | 16.16910 | 3109 ft | 242 kts | 101° |
| 2026-04-29 19:09 | 45.74925 | 16.19373 | 3637 ft | 262 kts | 100° |
| 2026-04-29 19:09 | 45.74537 | 16.22029 | 4102 ft | 283 kts | 99° |
| 2026-04-29 19:10 | 45.74133 | 16.24896 | 4535 ft | 304 kts | 99° |
| 2026-04-29 19:10 | 45.73658 | 16.27956 | 4918 ft | 326 kts | 105° |
| 2026-04-29 19:10 | 45.72675 | 16.30973 | 5211 ft | 352 kts | 122° |
| 2026-04-29 19:10 | 45.70895 | 16.33520 | 5642 ft | 372 kts | 144° |
| 2026-04-29 19:11 | 45.68521 | 16.35071 | 6402 ft | 381 kts | 164° |
| 2026-04-29 19:11 | 45.65866 | 16.35449 | 7151 ft | 387 kts | 183° |
| 2026-04-29 19:11 | 45.63183 | 16.34837 | 7888 ft | 392 kts | 192° |
| 2026-04-29 19:11 | 45.60534 | 16.33990 | 8636 ft | 396 kts | 192° |
| 2026-04-29 19:12 | 45.57822 | 16.33217 | 9384 ft | 399 kts | 190° |
| 2026-04-29 19:12 | 45.55049 | 16.32571 | 10120 ft | 404 kts | 188° |
| 2026-04-29 19:12 | 45.53203 | 16.32201 | 10613 ft | 405 kts | 188° |
| 2026-04-29 19:12 | 45.51348 | 16.31860 | 11137 ft | 406 kts | 188° |
| 2026-04-29 19:13 | 45.46643 | 16.31051 | 12393 ft | 410 kts | 188° |
| 2026-04-29 19:13 | 45.44717 | 16.30726 | 12814 ft | 415 kts | 188° |
| 2026-04-29 19:13 | 45.41862 | 16.30244 | 13397 ft | 421 kts | 189° |
| 2026-04-29 19:13 | 45.38944 | 16.29750 | 14124 ft | 424 kts | 189° |
| 2026-04-29 19:14 | 45.35997 | 16.29249 | 14731 ft | 429 kts | 190° |
| 2026-04-29 19:14 | 45.33013 | 16.28740 | 15297 ft | 434 kts | 190° |
| 2026-04-29 19:14 | 45.30004 | 16.28227 | 15979 ft | 437 kts | 190° |
| 2026-04-29 19:14 | 45.26968 | 16.27707 | 16589 ft | 441 kts | 191° |
| 2026-04-29 19:15 | 45.23888 | 16.27180 | 17195 ft | 446 kts | 191° |
| 2026-04-29 19:15 | 45.20781 | 16.26650 | 17819 ft | 451 kts | 191° |
| 2026-04-29 19:15 | 45.17686 | 16.26119 | 18407 ft | 456 kts | 191° |
| 2026-04-29 19:15 | 45.14513 | 16.25578 | 18948 ft | 460 kts | 191° |
| 2026-04-29 19:16 | 45.11315 | 16.25037 | 19500 ft | 464 kts | 191° |
| 2026-04-29 19:16 | 45.08094 | 16.24491 | 20049 ft | 467 kts | 191° |
| 2026-04-29 19:16 | 45.04835 | 16.23938 | 20419 ft | 474 kts | 191° |
| 2026-04-29 19:16 | 45.01591 | 16.23388 | 20239 ft | 471 kts | 191° |
| 2026-04-29 19:17 | 44.98354 | 16.22841 | 20225 ft | 469 kts | 191° |
| 2026-04-29 19:17 | 44.95096 | 16.22289 | 20223 ft | 470 kts | 191° |
| 2026-04-29 19:17 | 44.91840 | 16.21737 | 20221 ft | 471 kts | 191° |
| 2026-04-29 19:17 | 44.88583 | 16.21186 | 20218 ft | 470 kts | 191° |
| 2026-04-29 19:18 | 44.85329 | 16.20637 | 20215 ft | 470 kts | 191° |
| 2026-04-29 19:18 | 44.83180 | 16.20275 | 20215 ft | 471 kts | 191° |
| 2026-04-29 19:18 | 44.78867 | 16.19550 | 20208 ft | 470 kts | 191° |
| 2026-04-29 19:18 | 44.75616 | 16.19003 | 20210 ft | 471 kts | 191° |
| 2026-04-29 19:19 | 44.72361 | 16.18456 | 20201 ft | 471 kts | 191° |
| 2026-04-29 19:19 | 44.69104 | 16.17909 | 20198 ft | 471 kts | 191° |
| 2026-04-29 19:19 | 44.65848 | 16.17364 | 20196 ft | 471 kts | 191° |
| 2026-04-29 19:19 | 44.62599 | 16.16820 | 20188 ft | 470 kts | 191° |
| 2026-04-29 19:20 | 44.59338 | 16.16274 | 20182 ft | 471 kts | 191° |
| 2026-04-29 19:20 | 44.56080 | 16.15729 | 20178 ft | 471 kts | 191° |
| 2026-04-29 19:20 | 44.52831 | 16.15196 | 20171 ft | 470 kts | 190° |
| 2026-04-29 19:20 | 44.49565 | 16.14673 | 20168 ft | 471 kts | 190° |
| 2026-04-29 19:21 | 44.46334 | 16.14144 | 20161 ft | 471 kts | 191° |
| 2026-04-29 19:21 | 44.43085 | 16.13587 | 20146 ft | 470 kts | 191° |
| 2026-04-29 19:21 | 44.39832 | 16.13029 | 19946 ft | 466 kts | 191° |
| 2026-04-29 19:21 | 44.36621 | 16.12486 | 19488 ft | 462 kts | 191° |
| 2026-04-29 19:22 | 44.33449 | 16.11956 | 19009 ft | 455 kts | 191° |
| 2026-04-29 19:22 | 44.30309 | 16.11435 | 18369 ft | 451 kts | 191° |
| 2026-04-29 19:22 | 44.27209 | 16.10920 | 17670 ft | 446 kts | 191° |
| 2026-04-29 19:22 | 44.24170 | 16.10418 | 17000 ft | 441 kts | 191° |
| 2026-04-29 19:23 | 44.21135 | 16.09917 | 16330 ft | 436 kts | 191° |
| 2026-04-29 19:23 | 44.18123 | 16.09420 | 15659 ft | 432 kts | 191° |
| 2026-04-29 19:23 | 44.15159 | 16.08933 | 15031 ft | 427 kts | 191° |
| 2026-04-29 19:23 | 44.12253 | 16.08455 | 14394 ft | 422 kts | 190° |
| 2026-04-29 19:24 | 44.09353 | 16.07973 | 13735 ft | 418 kts | 190° |
| 2026-04-29 19:24 | 44.06473 | 16.07498 | 13015 ft | 414 kts | 190° |
| 2026-04-29 19:24 | 44.03617 | 16.07030 | 12331 ft | 409 kts | 190° |
| 2026-04-29 19:24 | 44.00798 | 16.06568 | 11629 ft | 406 kts | 190° |
| 2026-04-29 19:25 | 43.97990 | 16.06108 | 11035 ft | 401 kts | 189° |
| 2026-04-29 19:25 | 43.95308 | 16.05672 | 10833 ft | 386 kts | 189° |
| 2026-04-29 19:25 | 43.92684 | 16.05247 | 10667 ft | 371 kts | 190° |
| 2026-04-29 19:25 | 43.90163 | 16.04839 | 10515 ft | 357 kts | 190° |
| 2026-04-29 19:26 | 43.87738 | 16.04444 | 10372 ft | 344 kts | 190° |
| 2026-04-29 19:26 | 43.85386 | 16.04265 | 10232 ft | 334 kts | 183° |
| 2026-04-29 19:26 | 43.83126 | 16.04275 | 10126 ft | 321 kts | 184° |
| 2026-04-29 19:26 | 43.80937 | 16.04274 | 10005 ft | 309 kts | 184° |
| 2026-04-29 19:27 | 43.78824 | 16.04269 | 9865 ft | 298 kts | 184° |
| 2026-04-29 19:27 | 43.76767 | 16.04262 | 9533 ft | 293 kts | 184° |
| 2026-04-29 19:27 | 43.74728 | 16.04253 | 9178 ft | 291 kts | 183° |
| 2026-04-29 19:27 | 43.72725 | 16.04244 | 8793 ft | 289 kts | 183° |
| 2026-04-29 19:28 | 43.70721 | 16.04238 | 8456 ft | 286 kts | 183° |
| 2026-04-29 19:28 | 43.68737 | 16.04233 | 8110 ft | 283 kts | 182° |
| 2026-04-29 19:28 | 43.66797 | 16.04227 | 7766 ft | 281 kts | 182° |
| 2026-04-29 19:28 | 43.64849 | 16.04222 | 7429 ft | 278 kts | 182° |
| 2026-04-29 19:29 | 43.62936 | 16.04218 | 7272 ft | 268 kts | 182° |
| 2026-04-29 19:29 | 43.61111 | 16.04217 | 7169 ft | 256 kts | 182° |
| 2026-04-29 19:29 | 43.59371 | 16.04214 | 7053 ft | 245 kts | 182° |
| 2026-04-29 19:29 | 43.57711 | 16.04211 | 6899 ft | 234 kts | 182° |
| 2026-04-29 19:30 | 43.56123 | 16.04209 | 6753 ft | 223 kts | 182° |
| 2026-04-29 19:30 | 43.54581 | 16.04206 | 6481 ft | 219 kts | 182° |
| 2026-04-29 19:30 | 43.53058 | 16.04200 | 6144 ft | 218 kts | 181° |
| 2026-04-29 19:30 | 43.51555 | 16.04196 | 5954 ft | 208 kts | 181° |
| 2026-04-29 19:31 | 43.50171 | 16.04193 | 5787 ft | 196 kts | 181° |
| 2026-04-29 19:31 | 43.48814 | 16.04190 | 5474 ft | 194 kts | 181° |
| 2026-04-29 19:31 | 43.47463 | 16.04185 | 5136 ft | 193 kts | 180° |
| 2026-04-29 19:31 | 43.46120 | 16.04179 | 4800 ft | 192 kts | 180° |
| 2026-04-29 19:32 | 43.44784 | 16.04175 | 4449 ft | 192 kts | 179° |
| 2026-04-29 19:32 | 43.43463 | 16.04286 | 4073 ft | 192 kts | 163° |
| 2026-04-29 19:32 | 43.42352 | 16.05246 | 3722 ft | 190 kts | 128° |
| 2026-04-29 19:32 | 43.41841 | 16.06881 | 3361 ft | 188 kts | 94° |
| 2026-04-29 19:33 | 43.42086 | 16.08599 | 3095 ft | 181 kts | 60° |
| 2026-04-29 19:33 | 43.42851 | 16.09984 | 3046 ft | 181 kts | 51° |
| 2026-04-29 19:33 | 43.43591 | 16.11286 | 2944 ft | 168 kts | 52° |
| 2026-04-29 19:33 | 43.44289 | 16.12543 | 2627 ft | 164 kts | 52° |
| 2026-04-29 19:34 | 43.44978 | 16.13791 | 2251 ft | 163 kts | 52° |
| 2026-04-29 19:34 | 43.45650 | 16.15002 | 2103 ft | 162 kts | 52° |
| 2026-04-29 19:34 | 43.46340 | 16.16249 | 2047 ft | 161 kts | 53° |
| 2026-04-29 19:34 | 43.46989 | 16.17432 | 1915 ft | 151 kts | 53° |
| 2026-04-29 19:35 | 43.47617 | 16.18569 | 1546 ft | 151 kts | 52° |
| 2026-04-29 19:35 | 43.48256 | 16.19719 | 1168 ft | 150 kts | 52° |
| 2026-04-29 19:35 | 43.48906 | 16.20879 | 1054 ft | 155 kts | 52° |
| 2026-04-29 19:35 | 43.49569 | 16.22063 | 1047 ft | 156 kts | 52° |
| 2026-04-29 19:36 | 43.50231 | 16.23250 | 1046 ft | 157 kts | 52° |
| 2026-04-29 19:36 | 43.50897 | 16.24439 | 904 ft | 159 kts | 52° |
| 2026-04-29 19:36 | 43.51578 | 16.25639 | 645 ft | 157 kts | 52° |
| 2026-04-29 19:36 | 43.52238 | 16.26836 | 426 ft | 158 kts | 53° |
| 2026-04-29 19:37 | 43.52897 | 16.28033 | 236 ft | 156 kts | 50° |
| 2026-04-29 19:37 | 43.53346 | 16.28798 | 99 ft | 152 kts | 51° |
| 2026-04-29 19:37 | 43.53890 | 16.29773 | 60 ft | 18 kts | 53° |
| 2026-04-29 19:37 | 43.53913 | 16.29817 | 64 ft | 24 kts | 53° |
| 2026-04-29 19:38 | 43.54057 | 16.30117 | 64 ft | 18 kts | 93° |
| 2026-04-29 19:38 | 43.54025 | 16.30156 | 63 ft | 1 kts | 211° |
| 2026-04-29 19:38 | 43.54006 | 16.30128 | 57 ft | 12 kts | 227° |
| 2026-04-29 19:38 | 43.53927 | 16.30067 | 64 ft | 0 kts | 200° |
| 2026-04-29 19:39 | 43.53911 | 16.30056 | 66 ft | 9 kts | 209° |
| 2026-04-29 19:40 | 43.53846 | 16.29954 | 64 ft | 18 kts | 231° |
| 2026-04-29 19:40 | 43.53782 | 16.29842 | 62 ft | 9 kts | 208° |
| 2026-04-29 19:40 | 43.53739 | 16.29847 | 64 ft | 4 kts | 121° |
| 2026-04-29 19:40 | 43.53730 | 16.29875 | 70 ft | 4 kts | 112° |
| 2026-04-29 19:41 | 43.53728 | 16.29880 | 70 ft | 2 kts | 112° |
| 2026-04-29 19:41 | 43.53727 | 16.29884 | 63 ft | 0 kts | 112° |